sensor_id;sensor_type;location;lat;lon;timestamp;pressure;altitude;pressure_sealevel;temperature;humidity
13934;BME280;7039;52.168;9.866;2023-02-28T02:58:49;102051.38;;;-0.03;74.35
13934;BME280;7039;52.168;9.866;2023-02-28T03:04:48;102062.00;;;0.17;73.90
13934;BME280;7039;52.168;9.866;2023-02-28T03:07:24;102059.56;;;0.24;73.57
13934;BME280;7039;52.168;9.866;2023-02-28T03:09:57;102051.53;;;0.05;73.75
13934;BME280;7039;52.168;9.866;2023-02-28T03:56:48;102070.34;;;0.06;72.76
13934;BME280;7039;52.168;9.866;2023-02-28T03:59:23;102056.41;;;-0.07;73.01
13934;BME280;7039;52.168;9.866;2023-02-28T05:17:55;102093.22;;;0.39;73.22
13934;BME280;7039;52.168;9.866;2023-02-28T05:20:23;102096.78;;;0.49;72.81
13934;BME280;7039;52.168;9.866;2023-02-28T05:22:50;102089.81;;;0.41;72.51
13934;BME280;7039;52.168;9.866;2023-02-28T05:25:19;102099.75;;;0.72;72.22
13934;BME280;7039;52.168;9.866;2023-02-28T05:27:46;102085.28;;;0.75;71.85
13934;BME280;7039;52.168;9.866;2023-02-28T05:30:14;102095.84;;;0.94;71.47
13934;BME280;7039;52.168;9.866;2023-02-28T05:32:41;102094.97;;;0.93;71.27
13934;BME280;7039;52.168;9.866;2023-02-28T05:35:10;102097.44;;;0.87;71.03
13934;BME280;7039;52.168;9.866;2023-02-28T05:37:37;102085.28;;;0.75;70.93
13934;BME280;7039;52.168;9.866;2023-02-28T05:40:06;102084.22;;;0.64;71.09
13934;BME280;7039;52.168;9.866;2023-02-28T05:42:35;102068.44;;;0.43;71.08
13934;BME280;7039;52.168;9.866;2023-02-28T05:45:02;102082.94;;;0.39;71.64
13934;BME280;7039;52.168;9.866;2023-02-28T05:47:29;102071.63;;;0.28;71.59
13934;BME280;7039;52.168;9.866;2023-02-28T05:49:55;102085.78;;;0.09;72.37
13934;BME280;7039;52.168;9.866;2023-02-28T05:52:23;102084.19;;;0.14;72.80
13934;BME280;7039;52.168;9.866;2023-02-28T05:54:50;102080.00;;;0.19;72.23
13934;BME280;7039;52.168;9.866;2023-02-28T05:57:16;102077.28;;;0.11;72.26
13934;BME280;7039;52.168;9.866;2023-02-28T05:59:43;102088.94;;;-0.05;72.29
13934;BME280;7039;52.168;9.866;2023-02-28T06:02:12;102085.41;;;-0.11;73.22
13934;BME280;7039;52.168;9.866;2023-02-28T06:04:39;102085.28;;;-0.17;73.16
13934;BME280;7039;52.168;9.866;2023-02-28T06:07:06;102077.56;;;-0.19;73.27
13934;BME280;7039;52.168;9.866;2023-02-28T06:09:35;102090.47;;;-0.55;73.75
13934;BME280;7039;52.168;9.866;2023-02-28T06:12:03;102089.47;;;-0.62;74.11
13934;BME280;7039;52.168;9.866;2023-02-28T06:14:31;102088.75;;;-0.56;74.20
13934;BME280;7039;52.168;9.866;2023-02-28T06:16:59;102083.53;;;-0.59;75.00
13934;BME280;7039;52.168;9.866;2023-02-28T06:19:26;102095.59;;;-0.55;75.12
13934;BME280;7039;52.168;9.866;2023-02-28T06:21:55;102101.56;;;-0.55;75.13
13934;BME280;7039;52.168;9.866;2023-02-28T06:24:23;102112.13;;;-0.43;75.03
13934;BME280;7039;52.168;9.866;2023-02-28T06:26:51;102115.78;;;-0.30;74.85
13934;BME280;7039;52.168;9.866;2023-02-28T06:29:18;102106.94;;;-0.44;74.76
13934;BME280;7039;52.168;9.866;2023-02-28T06:31:45;102098.34;;;-0.48;75.05
13934;BME280;7039;52.168;9.866;2023-02-28T06:34:12;102109.59;;;-0.39;74.74
13934;BME280;7039;52.168;9.866;2023-02-28T06:36:39;102116.53;;;-0.35;74.93
13934;BME280;7039;52.168;9.866;2023-02-28T06:39:06;102120.75;;;-0.37;74.48
13934;BME280;7039;52.168;9.866;2023-02-28T06:41:33;102131.91;;;-0.35;75.10
13934;BME280;7039;52.168;9.866;2023-02-28T06:44:05;102132.06;;;-0.29;75.04
13934;BME280;7039;52.168;9.866;2023-02-28T06:46:33;102137.00;;;-0.38;74.76
13934;BME280;7039;52.168;9.866;2023-02-28T06:49:51;102138.81;;;-0.33;75.19
13934;BME280;7039;52.168;9.866;2023-02-28T06:52:35;102144.09;;;-0.25;74.59
13934;BME280;7039;52.168;9.866;2023-02-28T06:55:03;102146.75;;;-0.21;74.87
13934;BME280;7039;52.168;9.866;2023-02-28T06:57:30;102136.91;;;-0.42;74.63
13934;BME280;7039;52.168;9.866;2023-02-28T07:00:23;102149.97;;;-0.31;75.43
13934;BME280;7039;52.168;9.866;2023-02-28T07:02:50;102157.31;;;-0.07;74.98
13934;BME280;7039;52.168;9.866;2023-02-28T07:05:19;102152.84;;;-0.15;74.93
13934;BME280;7039;52.168;9.866;2023-02-28T07:07:45;102152.69;;;-0.23;75.09
13934;BME280;7039;52.168;9.866;2023-02-28T07:10:12;102160.66;;;-0.11;75.04
13934;BME280;7039;52.168;9.866;2023-02-28T07:12:42;102160.34;;;0.18;74.87
13934;BME280;7039;52.168;9.866;2023-02-28T07:15:09;102162.44;;;0.36;74.68
13934;BME280;7039;52.168;9.866;2023-02-28T07:17:37;102166.34;;;0.62;74.24
13934;BME280;7039;52.168;9.866;2023-02-28T07:20:04;102161.34;;;0.69;73.35
13934;BME280;7039;52.168;9.866;2023-02-28T07:25:58;102173.59;;;0.85;73.18
13934;BME280;7039;52.168;9.866;2023-02-28T07:32:17;102176.72;;;1.17;71.87
13934;BME280;7039;52.168;9.866;2023-02-28T07:38:02;102188.25;;;1.42;71.08
13934;BME280;7039;52.168;9.866;2023-02-28T07:44:11;102176.34;;;1.49;70.38
13934;BME280;7039;52.168;9.866;2023-02-28T07:50:15;102166.50;;;1.22;70.38
13934;BME280;7039;52.168;9.866;2023-02-28T07:52:42;102174.09;;;1.16;70.79
13934;BME280;7039;52.168;9.866;2023-02-28T07:55:09;102175.94;;;1.21;71.09
13934;BME280;7039;52.168;9.866;2023-02-28T07:57:36;102173.38;;;1.24;70.91
13934;BME280;7039;52.168;9.866;2023-02-28T08:00:04;102170.75;;;1.20;70.52
13934;BME280;7039;52.168;9.866;2023-02-28T08:02:31;102166.41;;;1.16;70.72
13934;BME280;7039;52.168;9.866;2023-02-28T08:04:57;102164.75;;;1.19;70.97
13934;BME280;7039;52.168;9.866;2023-02-28T08:07:25;102171.88;;;1.37;70.37
13934;BME280;7039;52.168;9.866;2023-02-28T08:09:51;102169.22;;;1.31;70.44
13934;BME280;7039;52.168;9.866;2023-02-28T08:12:18;102167.31;;;1.19;71.06
13934;BME280;7039;52.168;9.866;2023-02-28T08:14:45;102164.66;;;1.12;71.51
13934;BME280;7039;52.168;9.866;2023-02-28T08:17:11;102162.19;;;1.19;71.68
13934;BME280;7039;52.168;9.866;2023-02-28T08:19:38;102156.81;;;1.06;72.86
13934;BME280;7039;52.168;9.866;2023-02-28T08:22:04;102162.84;;;1.08;72.60
13934;BME280;7039;52.168;9.866;2023-02-28T08:24:32;102162.81;;;1.04;73.45
13934;BME280;7039;52.168;9.866;2023-02-28T08:26:59;102162.47;;;0.86;74.38
13934;BME280;7039;52.168;9.866;2023-02-28T08:29:25;102165.34;;;1.03;73.92
13934;BME280;7039;52.168;9.866;2023-02-28T08:31:52;102167.50;;;1.30;73.18
13934;BME280;7039;52.168;9.866;2023-02-28T08:34:18;102178.09;;;1.50;72.81
13934;BME280;7039;52.168;9.866;2023-02-28T08:36:45;102181.66;;;1.60;72.71
13934;BME280;7039;52.168;9.866;2023-02-28T08:39:12;102181.81;;;1.72;72.18
13934;BME280;7039;52.168;9.866;2023-02-28T08:41:41;102181.09;;;1.81;71.72
13934;BME280;7039;52.168;9.866;2023-02-28T08:44:09;102183.69;;;1.84;71.73
13934;BME280;7039;52.168;9.866;2023-02-28T08:46:35;102183.69;;;1.82;72.25
13934;BME280;7039;52.168;9.866;2023-02-28T08:49:02;102187.28;;;1.95;72.19
13934;BME280;7039;52.168;9.866;2023-02-28T08:51:28;102188.28;;;2.06;71.21
13934;BME280;7039;52.168;9.866;2023-02-28T08:53:57;102186.69;;;2.18;70.81
13934;BME280;7039;52.168;9.866;2023-02-28T08:56:25;102192.81;;;2.26;70.50
13934;BME280;7039;52.168;9.866;2023-02-28T08:58:55;102197.22;;;2.36;70.80
13934;BME280;7039;52.168;9.866;2023-02-28T09:01:23;102198.94;;;2.36;70.88
13934;BME280;7039;52.168;9.866;2023-02-28T14:52:36;102016.13;;;13.95;36.46
13934;BME280;7039;52.168;9.866;2023-02-28T14:55:05;102023.31;;;14.56;35.74
13934;BME280;7039;52.168;9.866;2023-02-28T14:57:40;102016.22;;;14.36;35.58
13934;BME280;7039;52.168;9.866;2023-02-28T15:00:13;102025.72;;;15.22;34.67
13934;BME280;7039;52.168;9.866;2023-02-28T15:02:41;102012.81;;;14.97;34.05
13934;BME280;7039;52.168;9.866;2023-02-28T15:05:23;102011.75;;;15.01;34.83
13934;BME280;7039;52.168;9.866;2023-02-28T15:08:03;102010.22;;;15.16;35.17
13934;BME280;7039;52.168;9.866;2023-02-28T15:10:29;102000.31;;;15.61;33.86
13934;BME280;7039;52.168;9.866;2023-02-28T15:12:58;102006.69;;;15.93;34.30
13934;BME280;7039;52.168;9.866;2023-02-28T15:15:38;102002.25;;;15.76;33.66
13934;BME280;7039;52.168;9.866;2023-02-28T15:18:08;101996.41;;;15.70;33.94
13934;BME280;7039;52.168;9.866;2023-02-28T15:20:42;102006.81;;;16.09;33.68
13934;BME280;7039;52.168;9.866;2023-02-28T15:23:11;101999.59;;;15.38;34.50
13934;BME280;7039;52.168;9.866;2023-02-28T15:25:39;101996.13;;;15.38;34.33
13934;BME280;7039;52.168;9.866;2023-02-28T15:28:14;101992.59;;;15.18;34.46
13934;BME280;7039;52.168;9.866;2023-02-28T15:30:51;101992.97;;;15.30;34.23
13934;BME280;7039;52.168;9.866;2023-02-28T15:33:20;101987.53;;;14.95;35.17
13934;BME280;7039;52.168;9.866;2023-02-28T15:35:47;101985.16;;;15.47;33.97
13934;BME280;7039;52.168;9.866;2023-02-28T15:38:18;101971.81;;;14.93;35.44
13934;BME280;7039;52.168;9.866;2023-02-28T15:40:51;101971.88;;;14.51;35.74
13934;BME280;7039;52.168;9.866;2023-02-28T15:43:27;101974.34;;;14.55;34.24
13934;BME280;7039;52.168;9.866;2023-02-28T15:45:57;101971.53;;;14.17;34.26
13934;BME280;7039;52.168;9.866;2023-02-28T15:48:27;101983.59;;;14.64;34.77
13934;BME280;7039;52.168;9.866;2023-02-28T15:50:55;101971.28;;;13.79;36.09
13934;BME280;7039;52.168;9.866;2023-02-28T15:53:27;101969.31;;;12.92;36.62
13934;BME280;7039;52.168;9.866;2023-02-28T15:55:58;101976.75;;;12.27;37.67
13934;BME280;7039;52.168;9.866;2023-02-28T15:58:26;101967.50;;;11.01;40.54
13934;BME280;7039;52.168;9.866;2023-02-28T16:01:16;101968.47;;;10.30;40.83
13934;BME280;7039;52.168;9.866;2023-02-28T16:03:45;101962.41;;;9.92;42.40
13934;BME280;7039;52.168;9.866;2023-02-28T16:06:40;101965.81;;;9.15;43.99
13934;BME280;7039;52.168;9.866;2023-02-28T16:09:12;101969.69;;;8.95;44.13
13934;BME280;7039;52.168;9.866;2023-02-28T16:11:42;101962.50;;;8.60;45.39
13934;BME280;7039;52.168;9.866;2023-02-28T16:14:17;101958.53;;;8.41;44.50
13934;BME280;7039;52.168;9.866;2023-02-28T16:16:46;101964.13;;;8.14;46.14
13934;BME280;7039;52.168;9.866;2023-02-28T16:19:13;101965.19;;;8.01;45.50
13934;BME280;7039;52.168;9.866;2023-02-28T16:21:40;101966.53;;;7.69;46.53
13934;BME280;7039;52.168;9.866;2023-02-28T16:24:07;101978.72;;;7.64;46.84
13934;BME280;7039;52.168;9.866;2023-02-28T16:26:35;101973.91;;;7.35;47.19
13934;BME280;7039;52.168;9.866;2023-02-28T16:29:05;101979.88;;;7.40;47.26
13934;BME280;7039;52.168;9.866;2023-02-28T16:31:35;101968.75;;;7.34;47.54
13934;BME280;7039;52.168;9.866;2023-02-28T16:34:03;101975.06;;;7.11;47.95
13934;BME280;7039;52.168;9.866;2023-02-28T16:36:30;101980.41;;;6.97;48.33
13934;BME280;7039;52.168;9.866;2023-02-28T16:38:57;101982.28;;;6.83;48.54
13934;BME280;7039;52.168;9.866;2023-02-28T16:41:25;101982.31;;;6.78;49.09
13934;BME280;7039;52.168;9.866;2023-02-28T16:43:55;101997.03;;;6.79;49.77
13934;BME280;7039;52.168;9.866;2023-02-28T16:46:27;101990.13;;;6.75;49.03
13934;BME280;7039;52.168;9.866;2023-02-28T16:48:56;101992.94;;;6.49;50.67
13934;BME280;7039;52.168;9.866;2023-02-28T16:51:23;101995.59;;;6.44;51.05
13934;BME280;7039;52.168;9.866;2023-02-28T16:53:49;101988.88;;;6.20;51.22
13934;BME280;7039;52.168;9.866;2023-02-28T16:56:18;101988.00;;;6.20;50.86
13934;BME280;7039;52.168;9.866;2023-02-28T16:58:45;102002.75;;;6.10;51.46
13934;BME280;7039;52.168;9.866;2023-02-28T17:01:15;102003.72;;;5.98;52.28
13934;BME280;7039;52.168;9.866;2023-02-28T17:03:42;101997.69;;;5.85;52.51
13934;BME280;7039;52.168;9.866;2023-02-28T17:06:17;102002.03;;;5.86;52.17
13934;BME280;7039;52.168;9.866;2023-02-28T17:08:44;102003.84;;;5.71;52.51
13934;BME280;7039;52.168;9.866;2023-02-28T17:11:11;101999.59;;;5.54;52.97
13934;BME280;7039;52.168;9.866;2023-02-28T17:13:37;102007.38;;;5.48;53.17
13934;BME280;7039;52.168;9.866;2023-02-28T17:16:05;102008.25;;;5.44;52.60
13934;BME280;7039;52.168;9.866;2023-02-28T17:18:33;102015.19;;;5.36;53.78
13934;BME280;7039;52.168;9.866;2023-02-28T17:20:59;102015.19;;;5.39;54.44
13934;BME280;7039;52.168;9.866;2023-02-28T17:23:26;102016.06;;;5.35;54.63
13934;BME280;7039;52.168;9.866;2023-02-28T17:25:52;102019.56;;;5.25;53.87
13934;BME280;7039;52.168;9.866;2023-02-28T17:28:20;102017.81;;;5.22;54.06
13934;BME280;7039;52.168;9.866;2023-02-28T17:30:47;102012.66;;;5.13;54.51
13934;BME280;7039;52.168;9.866;2023-02-28T17:33:14;102010.97;;;5.10;54.95
13934;BME280;7039;52.168;9.866;2023-02-28T17:35:42;102014.44;;;4.94;55.27
13934;BME280;7039;52.168;9.866;2023-02-28T17:38:15;102022.22;;;4.83;55.82
13934;BME280;7039;52.168;9.866;2023-02-28T17:40:42;102022.25;;;4.77;55.94
13934;BME280;7039;52.168;9.866;2023-02-28T17:43:08;102025.69;;;4.77;55.79
13934;BME280;7039;52.168;9.866;2023-02-28T18:02:39;102043.63;;;3.78;59.69
13934;BME280;7039;52.168;9.866;2023-02-28T20:34:48;102079.03;;;1.16;69.13
13934;BME280;7039;52.168;9.866;2023-02-28T20:37:15;102082.56;;;1.22;68.60
13934;BME280;7039;52.168;9.866;2023-02-28T20:39:41;102082.56;;;1.21;68.30
13934;BME280;7039;52.168;9.866;2023-02-28T20:42:08;102087.59;;;1.15;68.57
13934;BME280;7039;52.168;9.866;2023-02-28T20:44:34;102090.94;;;1.09;69.07
13934;BME280;7039;52.168;9.866;2023-02-28T20:47:01;102089.06;;;0.99;69.46
13934;BME280;7039;52.168;9.866;2023-02-28T20:49:28;102082.09;;;0.92;69.79
13934;BME280;7039;52.168;9.866;2023-02-28T20:51:56;102085.66;;;1.01;69.73
13934;BME280;7039;52.168;9.866;2023-02-28T20:54:24;102087.41;;;1.04;69.73
13934;BME280;7039;52.168;9.866;2023-02-28T22:22:54;102077.34;;;0.61;69.77
13934;BME280;7039;52.168;9.866;2023-02-28T22:25:21;102084.16;;;0.61;69.78
13934;BME280;7039;52.168;9.866;2023-02-28T22:27:49;102079.09;;;0.64;69.89
13934;BME280;7039;52.168;9.866;2023-02-28T22:30:16;102080.63;;;0.53;69.91
13934;BME280;7039;52.168;9.866;2023-02-28T22:32:43;102077.28;;;0.58;69.71
13934;BME280;7039;52.168;9.866;2023-02-28T22:35:10;102071.94;;;0.46;69.85
13934;BME280;7039;52.168;9.866;2023-02-28T22:37:37;102061.56;;;0.40;70.47
13934;BME280;7039;52.168;9.866;2023-02-28T22:40:04;102065.88;;;0.43;70.40
13934;BME280;7039;52.168;9.866;2023-02-28T22:42:32;102073.81;;;0.55;69.71
13934;BME280;7039;52.168;9.866;2023-02-28T22:45:00;102074.66;;;0.55;69.75
13934;BME280;7039;52.168;9.866;2023-02-28T22:47:27;102070.38;;;0.56;69.97
13934;BME280;7039;52.168;9.866;2023-02-28T22:49:54;102078.78;;;0.47;70.46
13934;BME280;7039;52.168;9.866;2023-02-28T22:52:20;102074.34;;;0.37;70.31
13934;BME280;7039;52.168;9.866;2023-02-28T22:54:49;102084.16;;;0.61;70.02
13934;BME280;7039;52.168;9.866;2023-02-28T22:57:20;102078.16;;;0.60;69.75
13934;BME280;7039;52.168;9.866;2023-02-28T22:59:55;102085.13;;;0.66;69.65
13934;BME280;7039;52.168;9.866;2023-02-28T23:03:05;102083.34;;;0.62;69.36
13934;BME280;7039;52.168;9.866;2023-02-28T23:05:55;102079.72;;;0.51;69.48
13934;BME280;7039;52.168;9.866;2023-02-28T23:08:27;102074.31;;;0.35;69.81
13934;BME280;7039;52.168;9.866;2023-02-28T23:18:30;102081.28;;;0.41;70.20
13934;BME280;7039;52.168;9.866;2023-02-28T23:21:34;102073.13;;;-0.26;70.82
13934;BME280;7039;52.168;9.866;2023-02-28T23:24:25;102081.88;;;-0.16;71.49
13934;BME280;7039;52.168;9.866;2023-02-28T23:26:59;102077.09;;;0.01;71.43
13934;BME280;7039;52.168;9.866;2023-02-28T23:29:41;102075.09;;;-0.14;71.67
13934;BME280;7039;52.168;9.866;2023-02-28T23:32:10;102080.38;;;-0.05;71.92
13934;BME280;7039;52.168;9.866;2023-02-28T23:35:09;102087.94;;;-0.13;72.43
13934;BME280;7039;52.168;9.866;2023-02-28T23:37:42;102089.69;;;-0.10;72.29
13934;BME280;7039;52.168;9.866;2023-02-28T23:40:20;102095.09;;;0.04;71.73
13934;BME280;7039;52.168;9.866;2023-02-28T23:43:20;102095.22;;;0.11;71.49
13934;BME280;7039;52.168;9.866;2023-02-28T23:46:06;102086.25;;;-0.12;71.62
13934;BME280;7039;52.168;9.866;2023-02-28T23:48:51;102104.63;;;0.11;71.33
13934;BME280;7039;52.168;9.866;2023-02-28T23:51:27;102099.47;;;0.08;71.54
13934;BME280;7039;52.168;9.866;2023-02-28T23:54:05;102097.81;;;0.11;71.04
13934;BME280;7039;52.168;9.866;2023-02-28T23:57:01;102099.41;;;0.06;71.19
13934;BME280;7039;52.168;9.866;2023-02-28T23:59:44;102107.78;;;-0.03;70.60
